sensor_id;sensor_type;location;lat;lon;timestamp;pressure;altitude;pressure_sealevel;temperature;humidity
82784;BME280;72520;55.762;37.780;2024-01-11T00:01:51;98220.28;;;-6.27;76.47
82784;BME280;72520;55.762;37.780;2024-01-11T00:04:55;98219.19;;;-6.19;76.09
82784;BME280;72520;55.762;37.780;2024-01-11T00:07:57;98208.13;;;-6.25;76.24
82784;BME280;72520;55.762;37.780;2024-01-11T00:11:00;98200.34;;;-6.24;76.00
82784;BME280;72520;55.762;37.780;2024-01-11T00:14:02;98176.09;;;-6.20;76.16
82784;BME280;72520;55.762;37.780;2024-01-11T00:17:04;98160.47;;;-6.16;76.46
82784;BME280;72520;55.762;37.780;2024-01-11T00:20:09;98151.66;;;-6.09;76.33
82784;BME280;72520;55.762;37.780;2024-01-11T00:23:11;98129.94;;;-6.04;75.76
82784;BME280;72520;55.762;37.780;2024-01-11T00:26:13;98124.66;;;-5.99;75.93
82784;BME280;72520;55.762;37.780;2024-01-11T00:29:15;98115.91;;;-5.95;76.11
82784;BME280;72520;55.762;37.780;2024-01-11T00:32:18;98102.91;;;-5.94;75.81
82784;BME280;72520;55.762;37.780;2024-01-11T00:35:23;98089.94;;;-5.92;75.80
82784;BME280;72520;55.762;37.780;2024-01-11T00:38:25;98086.16;;;-5.82;76.33
82784;BME280;72520;55.762;37.780;2024-01-11T00:41:27;98075.13;;;-5.59;76.37
82784;BME280;72520;55.762;37.780;2024-01-11T00:44:29;98065.75;;;-5.63;75.69
82784;BME280;72520;55.762;37.780;2024-01-11T00:47:32;98049.25;;;-5.61;75.79
82784;BME280;72520;55.762;37.780;2024-01-11T00:50:36;98043.19;;;-5.60;76.48
82784;BME280;72520;55.762;37.780;2024-01-11T00:53:38;98038.00;;;-5.60;76.51
82784;BME280;72520;55.762;37.780;2024-01-11T00:56:40;98012.75;;;-5.53;76.34
82784;BME280;72520;55.762;37.780;2024-01-11T00:59:42;98014.34;;;-5.49;76.61
82784;BME280;72520;55.762;37.780;2024-01-11T01:02:45;98003.78;;;-5.43;76.88
82784;BME280;72520;55.762;37.780;2024-01-11T01:05:49;97992.31;;;-5.35;77.12
82784;BME280;72520;55.762;37.780;2024-01-11T01:08:51;97987.59;;;-5.24;77.09
82784;BME280;72520;55.762;37.780;2024-01-11T01:11:53;97971.03;;;-5.18;77.42
82784;BME280;72520;55.762;37.780;2024-01-11T01:14:55;97961.16;;;-5.07;77.35
82784;BME280;72520;55.762;37.780;2024-01-11T01:17:58;97946.16;;;-4.99;77.48
82784;BME280;72520;55.762;37.780;2024-01-11T01:21:01;97933.44;;;-4.80;77.24
82784;BME280;72520;55.762;37.780;2024-01-11T01:24:04;97924.69;;;-4.78;77.02
82784;BME280;72520;55.762;37.780;2024-01-11T01:27:06;97914.16;;;-4.73;76.95
82784;BME280;72520;55.762;37.780;2024-01-11T01:30:08;97906.81;;;-4.62;76.81
82784;BME280;72520;55.762;37.780;2024-01-11T01:33:11;97902.38;;;-4.58;76.73
82784;BME280;72520;55.762;37.780;2024-01-11T01:36:15;97896.69;;;-4.45;76.81
82784;BME280;72520;55.762;37.780;2024-01-11T01:39:17;97881.69;;;-4.37;76.96
82784;BME280;72520;55.762;37.780;2024-01-11T01:42:20;97877.97;;;-4.30;77.03
82784;BME280;72520;55.762;37.780;2024-01-11T01:45:22;97869.69;;;-4.18;76.82
82784;BME280;72520;55.762;37.780;2024-01-11T01:48:25;97847.00;;;-4.13;76.51
82784;BME280;72520;55.762;37.780;2024-01-11T01:51:31;97838.72;;;-4.00;76.50
82784;BME280;72520;55.762;37.780;2024-01-11T01:54:34;97825.78;;;-3.80;76.05
82784;BME280;72520;55.762;37.780;2024-01-11T01:57:37;97820.13;;;-3.68;75.76
82784;BME280;72520;55.762;37.780;2024-01-11T02:00:41;97811.97;;;-3.61;75.33
82784;BME280;72520;55.762;37.780;2024-01-11T02:03:45;97794.63;;;-3.60;75.87
82784;BME280;72520;55.762;37.780;2024-01-11T02:06:50;97782.44;;;-3.58;75.63
82784;BME280;72520;55.762;37.780;2024-01-11T02:09:54;97774.50;;;-3.55;75.91
82784;BME280;72520;55.762;37.780;2024-01-11T02:12:57;97776.06;;;-3.51;75.89
82784;BME280;72520;55.762;37.780;2024-01-11T02:15:59;97764.03;;;-3.33;76.11
82784;BME280;72520;55.762;37.780;2024-01-11T02:19:01;97745.81;;;-3.33;76.41
82784;BME280;72520;55.762;37.780;2024-01-11T02:22:14;97751.34;;;-3.21;76.30
82784;BME280;72520;55.762;37.780;2024-01-11T02:25:19;97741.94;;;-3.23;76.57
82784;BME280;72520;55.762;37.780;2024-01-11T02:28:21;97721.09;;;-3.03;76.92
82784;BME280;72520;55.762;37.780;2024-01-11T02:31:23;97713.78;;;-2.76;76.99
82784;BME280;72520;55.762;37.780;2024-01-11T02:34:27;97709.34;;;-2.55;76.47
82784;BME280;72520;55.762;37.780;2024-01-11T02:37:29;97700.09;;;-2.44;76.99
82784;BME280;72520;55.762;37.780;2024-01-11T02:40:33;97688.31;;;-2.34;76.66
82784;BME280;72520;55.762;37.780;2024-01-11T02:43:36;97682.69;;;-2.25;76.98
82784;BME280;72520;55.762;37.780;2024-01-11T02:46:38;97664.03;;;-2.17;76.76
82784;BME280;72520;55.762;37.780;2024-01-11T02:49:40;97667.34;;;-1.96;77.44
82784;BME280;72520;55.762;37.780;2024-01-11T02:52:42;97660.16;;;-1.74;76.86
82784;BME280;72520;55.762;37.780;2024-01-11T02:55:46;97650.78;;;-1.61;77.12
82784;BME280;72520;55.762;37.780;2024-01-11T02:58:48;97640.22;;;-1.42;76.34
82784;BME280;72520;55.762;37.780;2024-01-11T03:01:51;97634.38;;;-1.30;76.17
82784;BME280;72520;55.762;37.780;2024-01-11T03:04:53;97622.25;;;-1.16;75.71
82784;BME280;72520;55.762;37.780;2024-01-11T03:07:55;97619.59;;;-1.14;75.61
82784;BME280;72520;55.762;37.780;2024-01-11T03:10:59;97619.34;;;-1.10;76.11
82784;BME280;72520;55.762;37.780;2024-01-11T03:14:01;97604.09;;;-1.02;76.19
82784;BME280;72520;55.762;37.780;2024-01-11T03:17:03;97604.97;;;-0.85;75.81
82784;BME280;72520;55.762;37.780;2024-01-11T03:20:07;97595.09;;;-0.80;75.82
82784;BME280;72520;55.762;37.780;2024-01-11T03:23:09;97589.44;;;-0.73;75.95
82784;BME280;72520;55.762;37.780;2024-01-11T03:26:17;97587.66;;;-0.88;76.79
82784;BME280;72520;55.762;37.780;2024-01-11T03:29:19;97583.06;;;-0.83;76.84
82784;BME280;72520;55.762;37.780;2024-01-11T03:32:21;97564.19;;;-0.72;76.69
82784;BME280;72520;55.762;37.780;2024-01-11T03:35:24;97558.59;;;-0.66;76.75
82784;BME280;72520;55.762;37.780;2024-01-11T03:38:26;97557.50;;;-0.62;77.21
82784;BME280;72520;55.762;37.780;2024-01-11T03:41:30;97554.88;;;-0.62;77.16
82784;BME280;72520;55.762;37.780;2024-01-11T03:44:32;97544.31;;;-0.45;76.89
82784;BME280;72520;55.762;37.780;2024-01-11T03:47:34;97543.66;;;-0.05;76.86
82784;BME280;72520;55.762;37.780;2024-01-11T03:50:37;97537.59;;;-0.05;75.96
82784;BME280;72520;55.762;37.780;2024-01-11T03:53:39;97539.34;;;-0.06;75.85
82784;BME280;72520;55.762;37.780;2024-01-11T03:56:42;97533.56;;;0.04;76.30
82784;BME280;72520;55.762;37.780;2024-01-11T03:59:45;97523.50;;;0.12;75.70
82784;BME280;72520;55.762;37.780;2024-01-11T04:02:47;97521.53;;;0.15;76.41
82784;BME280;72520;55.762;37.780;2024-01-11T04:05:49;97511.16;;;0.28;76.08
82784;BME280;72520;55.762;37.780;2024-01-11T04:08:51;97509.47;;;0.41;75.75
82784;BME280;72520;55.762;37.780;2024-01-11T04:11:55;97517.44;;;0.54;74.99
82784;BME280;72520;55.762;37.780;2024-01-11T04:14:57;97501.09;;;0.50;74.92
82784;BME280;72520;55.762;37.780;2024-01-11T04:18:00;97502.66;;;0.52;75.23
82784;BME280;72520;55.762;37.780;2024-01-11T04:21:02;97504.22;;;0.55;75.00
82784;BME280;72520;55.762;37.780;2024-01-11T04:24:04;97493.22;;;0.50;75.34
82784;BME280;72520;55.762;37.780;2024-01-11T04:27:09;97488.38;;;0.44;75.72
82784;BME280;72520;55.762;37.780;2024-01-11T04:30:12;97499.09;;;0.68;75.08
82784;BME280;72520;55.762;37.780;2024-01-11T04:33:14;97483.47;;;0.66;75.42
82784;BME280;72520;55.762;37.780;2024-01-11T04:36:17;97491.13;;;0.69;75.32
82784;BME280;72520;55.762;37.780;2024-01-11T04:39:19;97483.06;;;0.72;75.07
82784;BME280;72520;55.762;37.780;2024-01-11T04:42:23;97475.22;;;0.99;74.68
82784;BME280;72520;55.762;37.780;2024-01-11T04:45:25;97474.72;;;0.94;74.28
82784;BME280;72520;55.762;37.780;2024-01-11T04:48:27;97470.88;;;0.85;74.92
82784;BME280;72520;55.762;37.780;2024-01-11T04:51:30;97463.47;;;0.92;74.74
82784;BME280;72520;55.762;37.780;2024-01-11T04:54:32;97464.91;;;0.83;74.85
82784;BME280;72520;55.762;37.780;2024-01-11T04:57:36;97464.06;;;0.83;75.03
82784;BME280;72520;55.762;37.780;2024-01-11T05:00:38;97462.13;;;0.99;74.18
82784;BME280;72520;55.762;37.780;2024-01-11T05:03:40;97449.81;;;1.01;74.39
82784;BME280;72520;55.762;37.780;2024-01-11T05:06:42;97446.69;;;1.09;74.15
82784;BME280;72520;55.762;37.780;2024-01-11T05:09:45;97444.13;;;1.34;73.83
82784;BME280;72520;55.762;37.780;2024-01-11T05:12:48;97423.50;;;1.42;73.49
82784;BME280;72520;55.762;37.780;2024-01-11T05:15:51;97426.75;;;1.45;73.21
82784;BME280;72520;55.762;37.780;2024-01-11T05:18:54;97428.94;;;1.39;73.09
82784;BME280;72520;55.762;37.780;2024-01-11T05:21:56;97419.53;;;1.74;72.21
82784;BME280;72520;55.762;37.780;2024-01-11T05:24:58;97408.22;;;1.86;71.89
82784;BME280;72520;55.762;37.780;2024-01-11T05:28:03;97412.34;;;2.27;70.99
82784;BME280;72520;55.762;37.780;2024-01-11T05:31:08;97404.97;;;2.32;70.44
82784;BME280;72520;55.762;37.780;2024-01-11T05:34:10;97412.03;;;2.19;70.52
82784;BME280;72520;55.762;37.780;2024-01-11T05:37:13;97400.38;;;2.23;69.84
82784;BME280;72520;55.762;37.780;2024-01-11T05:40:16;97400.63;;;2.07;71.02
82784;BME280;72520;55.762;37.780;2024-01-11T05:43:21;97397.47;;;2.02;71.29
82784;BME280;72520;55.762;37.780;2024-01-11T05:46:24;97388.03;;;1.99;71.27
82784;BME280;72520;55.762;37.780;2024-01-11T05:49:26;97386.78;;;2.05;71.71
82784;BME280;72520;55.762;37.780;2024-01-11T05:52:28;97391.78;;;2.08;71.57
82784;BME280;72520;55.762;37.780;2024-01-11T05:55:30;97380.19;;;2.36;70.44
82784;BME280;72520;55.762;37.780;2024-01-11T05:58:34;97378.66;;;2.57;70.14
82784;BME280;72520;55.762;37.780;2024-01-11T06:01:40;97379.44;;;2.46;70.45
82784;BME280;72520;55.762;37.780;2024-01-11T06:04:43;97369.47;;;2.39;70.46
82784;BME280;72520;55.762;37.780;2024-01-11T06:07:47;97371.81;;;2.31;70.47
82784;BME280;72520;55.762;37.780;2024-01-11T06:10:49;97373.47;;;2.32;70.70
82784;BME280;72520;55.762;37.780;2024-01-11T06:13:53;97364.19;;;2.28;70.52
82784;BME280;72520;55.762;37.780;2024-01-11T06:16:55;97370.31;;;2.39;70.31
82784;BME280;72520;55.762;37.780;2024-01-11T06:19:57;97362.47;;;2.27;70.97
82784;BME280;72520;55.762;37.780;2024-01-11T06:22:59;97348.69;;;2.36;70.01
82784;BME280;72520;55.762;37.780;2024-01-11T06:26:02;97352.63;;;2.54;69.54
82784;BME280;72520;55.762;37.780;2024-01-11T06:29:05;97345.97;;;2.61;69.41
82784;BME280;72520;55.762;37.780;2024-01-11T06:32:08;97346.31;;;2.56;69.56
82784;BME280;72520;55.762;37.780;2024-01-11T06:35:10;97339.97;;;2.35;70.82
82784;BME280;72520;55.762;37.780;2024-01-11T06:38:12;97339.75;;;2.38;70.95
82784;BME280;72520;55.762;37.780;2024-01-11T06:41:14;97336.09;;;2.41;70.70
82784;BME280;72520;55.762;37.780;2024-01-11T06:44:18;97333.25;;;2.44;70.71
82784;BME280;72520;55.762;37.780;2024-01-11T06:47:21;97342.72;;;2.34;70.85
82784;BME280;72520;55.762;37.780;2024-01-11T06:50:23;97332.00;;;2.37;70.92
82784;BME280;72520;55.762;37.780;2024-01-11T06:53:25;97336.81;;;2.43;70.35
82784;BME280;72520;55.762;37.780;2024-01-11T06:56:27;97325.81;;;2.38;70.52
82784;BME280;72520;55.762;37.780;2024-01-11T06:59:31;97328.75;;;2.81;69.28
82784;BME280;72520;55.762;37.780;2024-01-11T07:02:33;97325.41;;;2.79;69.39
82784;BME280;72520;55.762;37.780;2024-01-11T07:05:36;97317.41;;;2.80;68.48
82784;BME280;72520;55.762;37.780;2024-01-11T07:08:38;97319.13;;;2.92;68.62
82784;BME280;72520;55.762;37.780;2024-01-11T07:11:40;97315.06;;;2.88;68.82
82784;BME280;72520;55.762;37.780;2024-01-11T07:14:44;97309.56;;;2.91;68.64
82784;BME280;72520;55.762;37.780;2024-01-11T07:17:46;97300.75;;;2.92;68.39
82784;BME280;72520;55.762;37.780;2024-01-11T07:20:49;97300.09;;;2.78;68.85
82784;BME280;72520;55.762;37.780;2024-01-11T07:23:52;97308.34;;;2.84;68.75
82784;BME280;72520;55.762;37.780;2024-01-11T07:26:54;97306.72;;;2.94;68.46
82784;BME280;72520;55.762;37.780;2024-01-11T07:29:57;97273.50;;;8.39;53.45
82784;BME280;72520;55.762;37.780;2024-01-11T07:33:00;97276.03;;;6.53;56.86
82784;BME280;72520;55.762;37.780;2024-01-11T07:36:03;97276.59;;;5.16;60.93
82784;BME280;72520;55.762;37.780;2024-01-11T07:39:05;97277.34;;;4.66;62.93
82784;BME280;72520;55.762;37.780;2024-01-11T07:42:07;97284.72;;;4.29;63.70
82784;BME280;72520;55.762;37.780;2024-01-11T07:45:11;97275.72;;;3.88;64.87
82784;BME280;72520;55.762;37.780;2024-01-11T07:48:14;97278.63;;;3.52;66.14
82784;BME280;72520;55.762;37.780;2024-01-11T07:51:16;97267.38;;;3.39;66.24
82784;BME280;72520;55.762;37.780;2024-01-11T07:54:20;97260.91;;;3.76;66.04
82784;BME280;72520;55.762;37.780;2024-01-11T07:57:23;97264.72;;;3.94;64.96
82784;BME280;72520;55.762;37.780;2024-01-11T08:00:26;97253.28;;;3.84;65.01
82784;BME280;72520;55.762;37.780;2024-01-11T08:03:29;97247.75;;;3.76;65.11
82784;BME280;72520;55.762;37.780;2024-01-11T08:06:31;97255.44;;;3.57;65.80
82784;BME280;72520;55.762;37.780;2024-01-11T08:09:34;97246.31;;;3.61;65.63
82784;BME280;72520;55.762;37.780;2024-01-11T08:12:37;97240.81;;;3.97;64.41
82784;BME280;72520;55.762;37.780;2024-01-11T08:15:41;97244.78;;;3.70;64.98
82784;BME280;72520;55.762;37.780;2024-01-11T08:18:43;97232.94;;;3.75;65.67
82784;BME280;72520;55.762;37.780;2024-01-11T08:21:47;97239.41;;;3.60;65.53
82784;BME280;72520;55.762;37.780;2024-01-11T08:24:49;97230.31;;;3.42;66.08
82784;BME280;72520;55.762;37.780;2024-01-11T08:27:56;97234.16;;;3.49;65.91
82784;BME280;72520;55.762;37.780;2024-01-11T08:31:00;97226.50;;;3.46;65.92
82784;BME280;72520;55.762;37.780;2024-01-11T08:34:05;97219.22;;;3.27;66.41
82784;BME280;72520;55.762;37.780;2024-01-11T08:37:07;97220.53;;;3.22;66.33
82784;BME280;72520;55.762;37.780;2024-01-11T08:40:10;97219.94;;;3.29;66.61
82784;BME280;72520;55.762;37.780;2024-01-11T08:43:20;97210.72;;;3.24;66.79
82784;BME280;72520;55.762;37.780;2024-01-11T08:46:27;97209.41;;;3.07;67.82
82784;BME280;72520;55.762;37.780;2024-01-11T08:49:31;97204.75;;;3.11;67.77
82784;BME280;72520;55.762;37.780;2024-01-11T08:52:34;97214.53;;;2.97;69.19
82784;BME280;72520;55.762;37.780;2024-01-11T08:55:36;97262.25;;;3.48;68.17
82784;BME280;72520;55.762;37.780;2024-01-11T08:58:39;97287.66;;;3.15;69.01
82784;BME280;72520;55.762;37.780;2024-01-11T09:01:43;97286.81;;;3.14;67.59
82784;BME280;72520;55.762;37.780;2024-01-11T09:04:45;97298.34;;;2.31;67.97
82784;BME280;72520;55.762;37.780;2024-01-11T09:07:49;97307.38;;;2.27;67.77
82784;BME280;72520;55.762;37.780;2024-01-11T09:10:51;97308.59;;;2.10;68.16
82784;BME280;72520;55.762;37.780;2024-01-11T09:13:54;97308.19;;;1.91;69.16
82784;BME280;72520;55.762;37.780;2024-01-11T09:16:59;97298.50;;;1.68;69.36
82784;BME280;72520;55.762;37.780;2024-01-11T09:20:01;97318.00;;;1.76;68.60
82784;BME280;72520;55.762;37.780;2024-01-11T09:23:05;97315.25;;;1.78;67.06
82784;BME280;72520;55.762;37.780;2024-01-11T09:26:08;97330.09;;;1.66;65.95
82784;BME280;72520;55.762;37.780;2024-01-11T09:29:11;97333.09;;;1.60;65.61
82784;BME280;72520;55.762;37.780;2024-01-11T09:32:14;97344.75;;;1.69;64.05
82784;BME280;72520;55.762;37.780;2024-01-11T09:35:16;97346.66;;;1.67;64.15
82784;BME280;72520;55.762;37.780;2024-01-11T09:38:19;97363.84;;;1.71;63.79
82784;BME280;72520;55.762;37.780;2024-01-11T09:41:21;97371.56;;;1.97;63.45
82784;BME280;72520;55.762;37.780;2024-01-11T09:44:24;97375.16;;;1.96;63.04
82784;BME280;72520;55.762;37.780;2024-01-11T09:47:28;97372.81;;;2.04;63.20
82784;BME280;72520;55.762;37.780;2024-01-11T09:50:32;97388.84;;;2.13;64.28
82784;BME280;72520;55.762;37.780;2024-01-11T09:53:34;97399.13;;;2.16;64.02
82784;BME280;72520;55.762;37.780;2024-01-11T09:56:37;97393.50;;;1.96;61.60
82784;BME280;72520;55.762;37.780;2024-01-11T09:59:41;97392.06;;;1.80;60.83
82784;BME280;72520;55.762;37.780;2024-01-11T10:02:46;97385.97;;;1.67;60.07
82784;BME280;72520;55.762;37.780;2024-01-11T10:05:49;97402.41;;;1.43;59.46
82784;BME280;72520;55.762;37.780;2024-01-11T10:08:51;97404.41;;;1.78;57.37
82784;BME280;72520;55.762;37.780;2024-01-11T10:11:54;97419.09;;;1.42;57.83
82784;BME280;72520;55.762;37.780;2024-01-11T10:15:05;97429.03;;;1.25;57.46
82784;BME280;72520;55.762;37.780;2024-01-11T10:18:11;97430.22;;;1.07;58.22
82784;BME280;72520;55.762;37.780;2024-01-11T10:21:13;97446.78;;;1.07;57.96
82784;BME280;72520;55.762;37.780;2024-01-11T10:24:18;97455.06;;;1.14;57.47
82784;BME280;72520;55.762;37.780;2024-01-11T10:27:26;97463.19;;;0.96;56.60
82784;BME280;72520;55.762;37.780;2024-01-11T10:30:28;97466.84;;;0.94;56.28
82784;BME280;72520;55.762;37.780;2024-01-11T10:33:33;97484.69;;;1.01;57.02
82784;BME280;72520;55.762;37.780;2024-01-11T10:36:36;97494.38;;;1.14;56.65
82784;BME280;72520;55.762;37.780;2024-01-11T10:39:38;97498.22;;;1.08;55.24
82784;BME280;72520;55.762;37.780;2024-01-11T10:42:42;97508.50;;;1.38;54.77
82784;BME280;72520;55.762;37.780;2024-01-11T10:45:47;97509.34;;;1.12;54.58
82784;BME280;72520;55.762;37.780;2024-01-11T10:48:56;97521.94;;;0.78;53.33
82784;BME280;72520;55.762;37.780;2024-01-11T10:52:03;97525.84;;;0.30;53.43
82784;BME280;72520;55.762;37.780;2024-01-11T10:55:06;97528.75;;;0.54;53.82
82784;BME280;72520;55.762;37.780;2024-01-11T10:58:09;97539.94;;;0.42;52.35
82784;BME280;72520;55.762;37.780;2024-01-11T11:01:13;97552.75;;;0.18;51.88
82784;BME280;72520;55.762;37.780;2024-01-11T11:04:19;97559.47;;;0.22;53.12
82784;BME280;72520;55.762;37.780;2024-01-11T11:07:23;97565.28;;;-0.17;52.31
82784;BME280;72520;55.762;37.780;2024-01-11T11:10:27;97580.63;;;0.04;54.85
82784;BME280;72520;55.762;37.780;2024-01-11T11:13:31;97595.53;;;-0.42;53.41
82784;BME280;72520;55.762;37.780;2024-01-11T11:16:34;97603.41;;;-0.74;55.03
82784;BME280;72520;55.762;37.780;2024-01-11T11:19:38;97605.44;;;-1.10;55.65
82784;BME280;72520;55.762;37.780;2024-01-11T11:22:40;97617.00;;;-1.47;57.34
82784;BME280;72520;55.762;37.780;2024-01-11T11:25:45;97641.38;;;-1.31;56.56
82784;BME280;72520;55.762;37.780;2024-01-11T11:28:48;97639.72;;;-1.66;58.59
82784;BME280;72520;55.762;37.780;2024-01-11T11:31:51;97649.50;;;-2.21;57.09
82784;BME280;72520;55.762;37.780;2024-01-11T11:34:56;97669.03;;;-2.30;58.71
82784;BME280;72520;55.762;37.780;2024-01-11T11:37:59;97673.09;;;-2.60;57.43
82784;BME280;72520;55.762;37.780;2024-01-11T11:41:01;97684.84;;;-2.70;57.48
82784;BME280;72520;55.762;37.780;2024-01-11T11:44:04;97694.84;;;-2.80;57.43
82784;BME280;72520;55.762;37.780;2024-01-11T11:47:19;97699.78;;;-2.74;55.55
82784;BME280;72520;55.762;37.780;2024-01-11T11:50:24;97709.13;;;-2.88;55.79
82784;BME280;72520;55.762;37.780;2024-01-11T11:53:30;97718.44;;;-2.83;55.70
82784;BME280;72520;55.762;37.780;2024-01-11T11:56:35;97737.47;;;-2.82;55.21
82784;BME280;72520;55.762;37.780;2024-01-11T11:59:38;97744.44;;;-3.22;55.33
82784;BME280;72520;55.762;37.780;2024-01-11T12:02:41;97752.59;;;-3.29;57.91
82784;BME280;72520;55.762;37.780;2024-01-11T12:05:45;97752.13;;;-3.19;55.77
82784;BME280;72520;55.762;37.780;2024-01-11T12:08:48;97760.94;;;-3.41;56.34
82784;BME280;72520;55.762;37.780;2024-01-11T12:11:54;97776.84;;;-3.49;58.34
82784;BME280;72520;55.762;37.780;2024-01-11T12:14:57;97780.03;;;-3.42;56.39
82784;BME280;72520;55.762;37.780;2024-01-11T12:17:59;97783.03;;;-3.31;55.56
82784;BME280;72520;55.762;37.780;2024-01-11T12:21:03;97791.28;;;-3.42;55.25
82784;BME280;72520;55.762;37.780;2024-01-11T12:24:06;97800.63;;;-3.58;56.05
82784;BME280;72520;55.762;37.780;2024-01-11T12:27:08;97801.00;;;-3.67;55.59
82784;BME280;72520;55.762;37.780;2024-01-11T12:30:12;97809.34;;;-3.39;56.03
82784;BME280;72520;55.762;37.780;2024-01-11T12:33:17;97805.38;;;-4.11;56.33
82784;BME280;72520;55.762;37.780;2024-01-11T12:36:23;97810.41;;;-4.06;57.71
82784;BME280;72520;55.762;37.780;2024-01-11T12:39:26;97822.88;;;-4.38;58.63
82784;BME280;72520;55.762;37.780;2024-01-11T12:42:29;97835.53;;;-4.07;58.49
82784;BME280;72520;55.762;37.780;2024-01-11T12:45:31;97833.53;;;-4.22;57.96
82784;BME280;72520;55.762;37.780;2024-01-11T12:48:34;97852.41;;;-4.40;58.12
82784;BME280;72520;55.762;37.780;2024-01-11T12:51:37;97851.97;;;-4.76;60.52
82784;BME280;72520;55.762;37.780;2024-01-11T12:54:40;97850.28;;;-4.52;60.04
82784;BME280;72520;55.762;37.780;2024-01-11T12:57:43;97857.50;;;-4.85;55.00
82784;BME280;72520;55.762;37.780;2024-01-11T13:00:45;97860.09;;;-4.85;55.30
82784;BME280;72520;55.762;37.780;2024-01-11T13:03:48;97857.94;;;-4.97;56.52
82784;BME280;72520;55.762;37.780;2024-01-11T13:06:52;97858.22;;;-5.05;54.79
82784;BME280;72520;55.762;37.780;2024-01-11T13:09:56;97876.06;;;-5.47;55.24
82784;BME280;72520;55.762;37.780;2024-01-11T13:12:58;97880.94;;;-5.64;55.57
82784;BME280;72520;55.762;37.780;2024-01-11T13:16:02;97877.88;;;-5.75;55.76
82784;BME280;72520;55.762;37.780;2024-01-11T13:19:06;97877.56;;;-5.92;55.85
82784;BME280;72520;55.762;37.780;2024-01-11T13:22:10;97879.66;;;-6.05;56.30
82784;BME280;72520;55.762;37.780;2024-01-11T13:25:12;97884.13;;;-5.82;55.89
82784;BME280;72520;55.762;37.780;2024-01-11T13:28:15;97886.97;;;-5.63;57.43
82784;BME280;72520;55.762;37.780;2024-01-11T13:31:19;97887.28;;;-5.73;56.31
82784;BME280;72520;55.762;37.780;2024-01-11T13:34:22;97893.53;;;-5.80;57.92
82784;BME280;72520;55.762;37.780;2024-01-11T13:37:25;97891.16;;;-5.59;58.12
82784;BME280;72520;55.762;37.780;2024-01-11T13:40:28;97893.97;;;-5.66;56.99
82784;BME280;72520;55.762;37.780;2024-01-11T13:43:30;97913.25;;;-5.48;58.95
82784;BME280;72520;55.762;37.780;2024-01-11T13:46:33;97911.03;;;-5.34;57.60
82784;BME280;72520;55.762;37.780;2024-01-11T13:49:39;97908.72;;;-5.17;57.43
82784;BME280;72520;55.762;37.780;2024-01-11T13:52:44;97910.47;;;-4.91;57.92
82784;BME280;72520;55.762;37.780;2024-01-11T13:55:46;97917.25;;;-5.13;56.22
82784;BME280;72520;55.762;37.780;2024-01-11T13:58:49;97921.41;;;-5.34;57.06
82784;BME280;72520;55.762;37.780;2024-01-11T14:01:51;97911.69;;;-5.01;60.69
82784;BME280;72520;55.762;37.780;2024-01-11T14:04:54;97922.63;;;-4.93;58.60
82784;BME280;72520;55.762;37.780;2024-01-11T14:08:06;97917.00;;;-5.05;57.33
82784;BME280;72520;55.762;37.780;2024-01-11T14:11:09;97920.31;;;-5.00;57.92
82784;BME280;72520;55.762;37.780;2024-01-11T14:14:11;97922.25;;;-4.57;57.84
82784;BME280;72520;55.762;37.780;2024-01-11T14:17:13;97928.56;;;-4.41;57.46
82784;BME280;72520;55.762;37.780;2024-01-11T14:20:16;97931.88;;;-4.61;56.43
82784;BME280;72520;55.762;37.780;2024-01-11T14:23:20;97932.59;;;-4.81;56.29
82784;BME280;72520;55.762;37.780;2024-01-11T14:26:22;97933.22;;;-4.99;57.37
82784;BME280;72520;55.762;37.780;2024-01-11T14:29:24;97937.88;;;-4.84;57.51
82784;BME280;72520;55.762;37.780;2024-01-11T14:32:26;97936.13;;;-5.08;57.45
82784;BME280;72520;55.762;37.780;2024-01-11T14:35:29;97939.25;;;-4.98;58.90
82784;BME280;72520;55.762;37.780;2024-01-11T14:38:33;97954.38;;;-5.11;57.69
82784;BME280;72520;55.762;37.780;2024-01-11T14:41:35;97936.16;;;-5.09;57.58
82784;BME280;72520;55.762;37.780;2024-01-11T14:44:38;97955.69;;;-5.24;58.33
82784;BME280;72520;55.762;37.780;2024-01-11T14:47:40;97950.53;;;-5.26;58.78
82784;BME280;72520;55.762;37.780;2024-01-11T14:50:43;97949.75;;;-5.28;59.54
82784;BME280;72520;55.762;37.780;2024-01-11T14:53:46;97957.81;;;-5.10;58.04
82784;BME280;72520;55.762;37.780;2024-01-11T14:56:49;97954.47;;;-5.14;57.54
82784;BME280;72520;55.762;37.780;2024-01-11T14:59:51;97955.72;;;-5.26;57.73
82784;BME280;72520;55.762;37.780;2024-01-11T15:02:55;97962.06;;;-5.34;58.32
82784;BME280;72520;55.762;37.780;2024-01-11T15:05:57;97960.88;;;-5.24;57.89
82784;BME280;72520;55.762;37.780;2024-01-11T15:09:00;97965.63;;;-5.38;57.97
82784;BME280;72520;55.762;37.780;2024-01-11T15:12:04;97977.22;;;-5.78;59.53
82784;BME280;72520;55.762;37.780;2024-01-11T15:15:07;97992.34;;;-5.92;59.02
82784;BME280;72520;55.762;37.780;2024-01-11T15:18:10;97992.44;;;-5.95;59.87
82784;BME280;72520;55.762;37.780;2024-01-11T15:21:12;97989.94;;;-5.98;60.20
82784;BME280;72520;55.762;37.780;2024-01-11T15:24:16;97993.00;;;-6.14;60.98
82784;BME280;72520;55.762;37.780;2024-01-11T15:27:19;98003.56;;;-6.22;60.92
82784;BME280;72520;55.762;37.780;2024-01-11T15:30:22;98009.56;;;-6.20;60.97
82784;BME280;72520;55.762;37.780;2024-01-11T15:33:25;98005.09;;;-6.15;60.78
82784;BME280;72520;55.762;37.780;2024-01-11T15:36:27;98014.94;;;-6.26;61.21
82784;BME280;72520;55.762;37.780;2024-01-11T15:39:31;98024.81;;;-6.40;60.91
82784;BME280;72520;55.762;37.780;2024-01-11T15:42:34;98029.84;;;-6.36;61.47
82784;BME280;72520;55.762;37.780;2024-01-11T15:45:36;98025.66;;;-6.40;61.56
82784;BME280;72520;55.762;37.780;2024-01-11T15:48:38;98020.72;;;-6.49;61.53
82784;BME280;72520;55.762;37.780;2024-01-11T15:51:41;98033.72;;;-6.52;62.17
82784;BME280;72520;55.762;37.780;2024-01-11T15:54:44;98035.72;;;-6.63;61.87
82784;BME280;72520;55.762;37.780;2024-01-11T15:57:47;98035.72;;;-6.61;61.69
82784;BME280;72520;55.762;37.780;2024-01-11T16:00:49;98036.72;;;-6.67;62.27
82784;BME280;72520;55.762;37.780;2024-01-11T16:03:52;98049.78;;;-6.73;61.76